createdAt,value
2023-03-21T00:00:41.515Z,10.09
2023-03-21T00:01:41.496Z,10.13
2023-03-21T00:02:41.548Z,10.13
2023-03-21T00:03:41.618Z,10.13
2023-03-21T00:04:51.337Z,10.17
2023-03-21T00:05:42.055Z,10.09
2023-03-21T00:06:41.437Z,10.10
2023-03-21T00:07:41.429Z,10.13
2023-03-21T00:08:41.422Z,10.16
2023-03-21T00:09:41.407Z,10.16
2023-03-21T00:10:43.790Z,10.15
2023-03-21T00:11:41.376Z,10.16
2023-03-21T00:12:41.357Z,10.12
2023-03-21T00:13:41.338Z,10.15
2023-03-21T00:14:41.343Z,10.13
2023-03-21T00:15:51.216Z,10.20
2023-03-21T00:16:41.485Z,10.19
2023-03-21T00:17:41.284Z,10.16
2023-03-21T00:18:41.310Z,10.16
2023-03-21T00:19:41.304Z,10.12
2023-03-21T00:20:41.249Z,10.13
2023-03-21T00:21:59.270Z,10.10
2023-03-21T00:22:41.228Z,10.07
2023-03-21T00:23:41.205Z,10.09
2023-03-21T00:24:41.211Z,10.05
2023-03-21T00:25:41.196Z,10.09
2023-03-21T00:26:41.177Z,10.12
2023-03-21T00:28:01.117Z,10.09
2023-03-21T00:28:42.151Z,10.13
2023-03-21T00:29:41.180Z,10.10
2023-03-21T00:30:41.116Z,10.10
2023-03-21T00:31:41.111Z,10.07
2023-03-21T00:32:54.994Z,10.09
2023-03-21T00:33:41.081Z,10.10
2023-03-21T00:34:59.679Z,10.15
2023-03-21T00:35:58.357Z,10.09
2023-03-21T00:36:42.111Z,10.10
2023-03-21T00:37:41.049Z,10.09
2023-03-21T00:38:41.022Z,10.10
2023-03-21T00:39:41.016Z,10.12
2023-03-21T00:40:48.837Z,10.07
2023-03-21T00:41:43.439Z,10.09
2023-03-21T00:42:40.972Z,10.16
2023-03-21T00:43:40.941Z,10.15
2023-03-21T00:44:40.933Z,10.10
2023-03-21T00:45:40.932Z,10.10
2023-03-21T00:46:48.980Z,10.09
2023-03-21T00:47:41.075Z,10.12
2023-03-21T00:48:40.887Z,10.09
2023-03-21T00:49:40.874Z,10.05
2023-03-21T00:50:40.909Z,10.02
2023-03-21T00:51:40.896Z,10.05
2023-03-21T00:52:41.475Z,10.05
2023-03-21T00:53:40.811Z,10.01
2023-03-21T00:54:40.809Z,10.05
2023-03-21T00:55:40.805Z,10.05
2023-03-21T00:56:40.782Z,10.05
2023-03-21T00:57:42.302Z,10.04
2023-03-21T00:58:40.754Z,10.05
2023-03-21T00:59:40.740Z,10.02
2023-03-21T01:00:40.834Z,10.01
2023-03-21T01:01:40.773Z,10.01
2023-03-21T01:02:41.918Z,9.98
2023-03-21T01:03:40.692Z,9.98
2023-03-21T01:04:40.677Z,10.01
2023-03-21T01:05:40.673Z,10.01
2023-03-21T01:06:40.667Z,10.02
2023-03-21T01:07:40.634Z,9.97
2023-03-21T01:08:51.775Z,9.97
2023-03-21T01:09:41.604Z,9.99
2023-03-21T01:10:40.611Z,9.95
2023-03-21T01:11:40.577Z,9.97
2023-03-21T01:12:40.573Z,9.99
2023-03-21T01:13:44.215Z,9.99
2023-03-21T01:14:40.549Z,10.05
2023-03-21T01:15:40.541Z,10.07
2023-03-21T01:16:40.740Z,10.07
2023-03-21T01:17:40.513Z,10.12
2023-03-21T01:18:40.492Z,10.12
2023-03-21T01:19:51.258Z,10.16
2023-03-21T01:20:40.490Z,10.25
2023-03-21T01:21:40.466Z,10.25
2023-03-21T01:22:40.483Z,10.25
2023-03-21T01:23:40.426Z,10.22
2023-03-21T01:24:52.093Z,10.20
2023-03-21T01:25:41.415Z,10.20
2023-03-21T01:26:40.383Z,10.25
2023-03-21T01:27:40.370Z,10.26
2023-03-21T01:28:40.355Z,10.33
2023-03-21T01:29:40.340Z,10.33
2023-03-21T01:30:42.077Z,10.35
2023-03-21T01:31:40.391Z,10.38
2023-03-21T01:32:40.309Z,10.34
2023-03-21T01:33:40.303Z,10.33
2023-03-21T01:34:40.280Z,10.30
2023-03-21T01:35:50.189Z,10.31
2023-03-21T01:36:41.280Z,10.31
2023-03-21T01:37:40.247Z,10.31
2023-03-21T01:38:40.258Z,10.34
2023-03-21T01:39:40.215Z,10.34
2023-03-21T01:40:40.240Z,10.37
2023-03-21T01:41:43.284Z,10.30
2023-03-21T01:42:40.179Z,10.23
2023-03-21T01:43:40.173Z,10.22
2023-03-21T01:44:40.149Z,10.22
2023-03-21T01:45:40.414Z,10.20
2023-03-21T01:46:51.578Z,10.25
2023-03-21T01:47:40.175Z,10.30
2023-03-21T01:48:40.099Z,10.33
2023-03-21T01:49:40.097Z,10.31
2023-03-21T01:50:40.078Z,10.33
2023-03-21T01:51:40.072Z,10.31
2023-03-21T01:52:40.100Z,10.28
2023-03-21T01:53:40.029Z,10.28
2023-03-21T01:54:40.038Z,10.28
2023-03-21T01:55:40.243Z,10.23
2023-03-21T01:56:40.004Z,10.22
2023-03-21T01:57:49.218Z,10.25
2023-03-21T01:58:40.986Z,10.23
2023-03-21T01:59:39.956Z,10.15
2023-03-21T02:00:40.010Z,10.07
2023-03-21T02:01:39.946Z,10.07
2023-03-21T02:02:39.906Z,10.12
2023-03-21T02:03:39.973Z,10.12
2023-03-21T02:04:39.888Z,10.12
2023-03-21T02:05:39.999Z,10.19
2023-03-21T02:06:39.881Z,10.25
2023-03-21T02:07:39.845Z,10.22
2023-03-21T02:08:40.143Z,10.20
2023-03-21T02:09:39.824Z,10.22
2023-03-21T02:10:39.828Z,10.17
2023-03-21T02:11:39.809Z,10.19
2023-03-21T02:12:39.776Z,10.15
2023-03-21T02:13:39.767Z,10.25
2023-03-21T02:14:39.760Z,10.22
2023-03-21T02:15:39.740Z,10.19
2023-03-21T02:16:39.824Z,10.22
2023-03-21T02:17:39.726Z,10.25
2023-03-21T02:18:39.709Z,10.20
2023-03-21T02:19:51.002Z,10.25
2023-03-21T02:20:39.681Z,10.22
2023-03-21T02:21:39.693Z,10.23
2023-03-21T02:22:39.649Z,10.22
2023-03-21T02:23:39.654Z,10.17
2023-03-21T02:24:41.075Z,10.10
2023-03-21T02:25:39.902Z,10.05
2023-03-21T02:26:42.915Z,10.05
2023-03-21T02:27:39.587Z,10.04
2023-03-21T02:28:39.580Z,9.99
2023-03-21T02:29:39.564Z,9.98
2023-03-21T02:30:50.734Z,9.97
2023-03-21T02:31:39.603Z,9.99
2023-03-21T02:32:39.516Z,9.98
2023-03-21T02:33:39.503Z,9.98
2023-03-21T02:34:39.500Z,9.99
2023-03-21T02:35:47.183Z,10.09
2023-03-21T02:39:38.778Z,10.07
2023-03-21T02:40:01.186Z,10.04
2023-03-21T02:41:03.428Z,10.07
2023-03-21T02:42:01.200Z,10.10
2023-03-21T02:43:01.592Z,10.09
2023-03-21T02:44:01.138Z,10.13
2023-03-21T02:45:01.131Z,10.20
2023-03-21T02:46:01.125Z,10.15
2023-03-21T02:47:06.038Z,10.12
2023-03-21T02:48:02.128Z,10.15
2023-03-21T02:49:01.099Z,10.07
2023-03-21T02:50:01.058Z,10.07
2023-03-21T02:51:01.046Z,10.10
2023-03-21T02:52:12.258Z,10.04
2023-03-21T02:53:01.047Z,10.01
2023-03-21T02:54:24.858Z,10.02
2023-03-21T02:55:01.023Z,10.04
2023-03-21T02:56:00.991Z,10.01
2023-03-21T02:57:00.988Z,9.99
2023-03-21T02:58:11.710Z,10.02
2023-03-21T02:59:01.941Z,9.98
2023-03-21T03:00:10.654Z,10.01
2023-03-21T03:01:00.923Z,10.01
2023-03-21T03:02:00.916Z,10.01
2023-03-21T03:03:09.269Z,10.01
2023-03-21T03:04:00.940Z,10.04
2023-03-21T03:05:00.876Z,9.99
2023-03-21T03:06:00.845Z,10.02
2023-03-21T03:07:00.855Z,10.01
2023-03-21T03:08:00.828Z,9.95
2023-03-21T03:09:02.955Z,9.89
2023-03-21T03:10:00.823Z,9.86
2023-03-21T03:11:00.789Z,9.89
2023-03-21T03:12:00.806Z,9.89
2023-03-21T03:13:00.759Z,9.86
2023-03-21T03:14:15.574Z,9.87
2023-03-21T03:15:03.970Z,9.89
2023-03-21T03:16:00.770Z,9.89
2023-03-21T03:17:00.758Z,9.89
2023-03-21T03:18:00.699Z,9.91
2023-03-21T03:19:00.691Z,9.87
2023-03-21T03:20:07.263Z,9.84
2023-03-21T03:21:00.655Z,9.77
2023-03-21T03:22:00.643Z,9.74
2023-03-21T03:23:00.639Z,9.79
2023-03-21T03:24:00.610Z,9.69
2023-03-21T03:25:04.822Z,9.68
2023-03-21T03:26:00.606Z,9.64
2023-03-21T03:27:00.575Z,9.65
2023-03-21T03:28:00.572Z,9.65
2023-03-21T03:29:00.561Z,9.58
2023-03-21T03:30:00.562Z,9.59
2023-03-21T03:31:09.114Z,9.58
2023-03-21T03:32:01.542Z,9.50
2023-03-21T03:33:00.513Z,9.48
2023-03-21T03:34:00.474Z,9.44
2023-03-21T03:35:00.464Z,9.47
2023-03-21T03:36:05.423Z,9.50
2023-03-21T03:37:00.493Z,9.50
2023-03-21T03:38:00.437Z,9.50
2023-03-21T03:39:00.408Z,9.41
2023-03-21T03:40:00.394Z,9.37
2023-03-21T03:41:00.386Z,9.36
2023-03-21T03:42:27.616Z,9.29
2023-03-21T03:43:01.382Z,9.22
2023-03-21T03:44:00.346Z,9.14
2023-03-21T03:45:00.329Z,9.10
2023-03-21T03:46:00.342Z,9.11
2023-03-21T03:47:00.305Z,9.04
2023-03-21T03:48:00.401Z,9.00
2023-03-21T03:49:00.288Z,8.97
2023-03-21T03:50:00.274Z,8.91
2023-03-21T03:51:00.254Z,8.78
2023-03-21T03:52:00.236Z,8.74
2023-03-21T03:53:02.961Z,8.66
2023-03-21T03:54:00.216Z,8.63
2023-03-21T03:55:00.203Z,8.58
2023-03-21T03:56:00.229Z,8.55
2023-03-21T03:57:00.174Z,8.51
2023-03-21T03:58:00.169Z,8.52
2023-03-21T03:59:00.146Z,8.51
2023-03-21T04:00:00.132Z,8.52
2023-03-21T04:01:00.131Z,8.46
2023-03-21T04:02:00.271Z,8.45
2023-03-21T04:03:00.247Z,8.44
2023-03-21T04:04:12.363Z,8.36
2023-03-21T04:05:00.098Z,8.28
2023-03-21T04:06:00.774Z,8.23
2023-03-21T04:07:00.063Z,8.23
2023-03-21T04:08:00.079Z,8.20
2023-03-21T04:09:01.659Z,8.26
2023-03-21T04:10:00.013Z,8.18
2023-03-21T04:11:00.994Z,8.16
2023-03-21T04:11:59.975Z,8.10
2023-03-21T04:12:59.985Z,8.12
2023-03-21T04:13:59.958Z,8.03
2023-03-21T04:15:09.582Z,7.93
2023-03-21T04:15:59.977Z,7.88
2023-03-21T04:16:59.930Z,7.87
2023-03-21T04:17:59.948Z,7.82
2023-03-21T04:18:59.892Z,7.83
2023-03-21T04:20:11.011Z,7.80
2023-03-21T04:20:59.869Z,7.79
2023-03-21T04:21:59.848Z,7.79
2023-03-21T04:22:59.854Z,7.82
2023-03-21T04:23:59.841Z,7.83
2023-03-21T04:25:00.635Z,7.80
2023-03-21T04:25:59.805Z,7.67
2023-03-21T04:26:59.786Z,7.57
2023-03-21T04:27:59.790Z,7.58
2023-03-21T04:28:59.757Z,7.57
2023-03-21T04:29:59.750Z,7.47
2023-03-21T04:31:05.216Z,7.36
2023-03-21T04:31:59.824Z,7.33
2023-03-21T04:32:59.722Z,7.33
2023-03-21T04:33:59.729Z,7.29
2023-03-21T04:34:59.682Z,7.23
2023-03-21T04:35:59.670Z,7.23
2023-03-21T04:36:59.669Z,7.23
2023-03-21T04:37:59.669Z,7.25
2023-03-21T04:38:59.624Z,7.23
2023-03-21T04:39:59.608Z,7.24
2023-03-21T04:40:59.603Z,7.20
2023-03-21T04:41:59.591Z,7.21
2023-03-21T04:42:59.632Z,7.23
2023-03-21T04:43:59.569Z,7.24
2023-03-21T04:44:59.548Z,7.23
2023-03-21T04:45:59.618Z,7.20
2023-03-21T04:46:59.525Z,7.21
2023-03-21T04:47:59.615Z,7.21
2023-03-21T04:48:59.521Z,7.28
2023-03-21T04:49:59.526Z,7.31
2023-03-21T04:50:59.471Z,7.33
2023-03-21T04:51:59.461Z,7.38
2023-03-21T04:52:59.477Z,7.36
2023-03-21T04:53:59.456Z,7.38
2023-03-21T04:54:59.417Z,7.42
2023-03-21T04:55:59.402Z,7.43
2023-03-21T04:56:59.386Z,7.42
2023-03-21T04:57:59.379Z,7.47
2023-03-21T04:58:59.382Z,7.45
2023-03-21T04:59:59.344Z,7.47
2023-03-21T05:00:59.392Z,7.43
2023-03-21T05:01:59.328Z,7.45
2023-03-21T05:02:59.309Z,7.43
2023-03-21T05:03:59.410Z,7.47
2023-03-21T05:04:59.286Z,7.48
2023-03-21T05:05:59.288Z,7.51
2023-03-21T05:06:59.259Z,7.57
2023-03-21T05:07:59.237Z,7.61
2023-03-21T05:08:59.247Z,7.60
2023-03-21T05:10:01.253Z,7.66
2023-03-21T05:10:59.210Z,7.70
2023-03-21T05:11:59.201Z,7.73
2023-03-21T05:12:59.177Z,7.73
2023-03-21T05:13:59.183Z,7.76
2023-03-21T05:14:59.149Z,7.80
2023-03-21T05:15:59.149Z,7.79
2023-03-21T05:16:59.189Z,7.82
2023-03-21T05:17:59.112Z,7.83
2023-03-21T05:18:59.166Z,7.85
2023-03-21T05:19:59.087Z,7.83
2023-03-21T05:20:59.078Z,7.82
2023-03-21T05:21:59.081Z,7.79
2023-03-21T05:22:59.049Z,7.87
2023-03-21T05:23:59.056Z,7.82
2023-03-21T05:24:59.020Z,7.79
2023-03-21T05:25:59.023Z,7.82
2023-03-21T05:27:01.223Z,7.80
2023-03-21T05:27:58.977Z,7.83
2023-03-21T05:28:58.993Z,7.77
2023-03-21T05:29:58.961Z,7.77
2023-03-21T05:30:59.016Z,7.75
2023-03-21T05:31:58.930Z,7.66
2023-03-21T05:32:58.919Z,7.56
2023-03-21T05:33:58.934Z,7.39
2023-03-21T05:34:58.889Z,7.32
2023-03-21T05:35:58.901Z,7.24
2023-03-21T05:36:58.861Z,7.21
2023-03-21T05:37:58.970Z,7.21
2023-03-21T05:38:58.840Z,7.18
2023-03-21T05:39:58.837Z,7.24
2023-03-21T05:40:58.810Z,7.23
2023-03-21T05:41:58.796Z,7.23
2023-03-21T05:42:58.791Z,7.29
2023-03-21T05:43:58.770Z,7.29
2023-03-21T05:44:58.779Z,7.31
2023-03-21T05:45:58.785Z,7.32
2023-03-21T05:46:58.735Z,7.35
2023-03-21T05:47:58.730Z,7.35
2023-03-21T05:48:58.708Z,7.36
2023-03-21T05:49:58.731Z,7.28
2023-03-21T05:50:58.682Z,7.28
2023-03-21T05:51:58.668Z,7.32
2023-03-21T05:52:58.653Z,7.39
2023-03-21T05:53:58.663Z,7.39
2023-03-21T05:54:58.644Z,7.42
2023-03-21T05:55:58.615Z,7.43
2023-03-21T05:56:58.613Z,7.32
2023-03-21T05:57:58.598Z,7.35
2023-03-21T05:58:58.592Z,7.36
2023-03-21T05:59:58.594Z,7.40
2023-03-21T06:00:58.554Z,7.43
2023-03-21T06:01:58.541Z,7.45
2023-03-21T06:02:58.564Z,7.48
2023-03-21T06:03:58.601Z,7.51
2023-03-21T06:04:58.530Z,7.51
2023-03-21T06:05:58.498Z,7.60
2023-03-21T06:06:58.474Z,7.69
2023-03-21T06:07:58.457Z,7.63
2023-03-21T06:08:58.441Z,7.70
2023-03-21T06:09:58.469Z,7.76
2023-03-21T06:10:58.423Z,7.82
2023-03-21T06:11:58.412Z,7.94
2023-03-21T06:12:58.399Z,7.97
2023-03-21T06:13:58.379Z,7.97
2023-03-21T06:14:58.389Z,8.06
2023-03-21T06:15:58.381Z,8.19
2023-03-21T06:16:58.350Z,8.15
2023-03-21T06:17:58.334Z,8.09
2023-03-21T06:18:58.314Z,8.19
2023-03-21T06:19:58.326Z,8.30
2023-03-21T06:20:58.289Z,8.44
2023-03-21T06:21:58.272Z,8.55
2023-03-21T06:22:58.274Z,8.58
2023-03-21T06:23:58.252Z,8.58
2023-03-21T06:24:58.256Z,9.03
2023-03-21T06:25:58.242Z,9.83
2023-03-21T06:26:58.208Z,10.69
2023-03-21T06:27:58.193Z,11.37
2023-03-21T06:28:58.189Z,12.03
2023-03-21T06:29:58.218Z,12.65
2023-03-21T06:30:58.175Z,13.16
2023-03-21T06:31:58.143Z,13.59
2023-03-21T06:32:58.130Z,13.86
2023-03-21T06:33:58.111Z,14.04
2023-03-21T06:34:58.122Z,14.50
2023-03-21T06:35:58.121Z,14.84
2023-03-21T06:36:58.076Z,15.24
2023-03-21T06:37:58.077Z,15.47
2023-03-21T06:38:58.088Z,15.83
2023-03-21T06:39:58.049Z,15.98
2023-03-21T06:40:58.022Z,16.36
2023-03-21T06:41:58.060Z,16.43
2023-03-21T06:42:58.013Z,16.56
2023-03-21T06:43:57.984Z,16.60
2023-03-21T06:44:58.008Z,16.71
2023-03-21T06:45:57.957Z,16.83
2023-03-21T06:46:58.008Z,17.12
2023-03-21T06:47:58.004Z,17.38
2023-03-21T06:48:57.927Z,17.29
2023-03-21T06:49:57.912Z,17.41
2023-03-21T06:50:57.912Z,17.44
2023-03-21T06:51:57.875Z,17.46
2023-03-21T06:52:57.862Z,17.56
2023-03-21T06:53:57.845Z,17.71
2023-03-21T06:54:57.835Z,17.67
2023-03-21T06:55:57.836Z,17.71
2023-03-21T06:56:57.813Z,17.78
2023-03-21T06:57:57.823Z,17.82
2023-03-21T06:58:57.793Z,17.87
2023-03-21T06:59:57.774Z,18.11
2023-03-21T07:00:57.835Z,18.10
2023-03-21T07:01:57.752Z,17.94
2023-03-21T07:02:57.804Z,17.29
2023-03-21T07:03:57.720Z,17.22
2023-03-21T07:04:57.711Z,17.52
2023-03-21T07:05:57.715Z,17.98
2023-03-21T07:06:57.688Z,18.33
2023-03-21T07:07:57.670Z,18.62
2023-03-21T07:08:57.649Z,18.81
2023-03-21T07:09:57.643Z,19.07
2023-03-21T07:10:57.637Z,19.29
2023-03-21T07:11:57.607Z,19.26
2023-03-21T07:12:57.608Z,18.80
2023-03-21T07:13:57.603Z,18.25
2023-03-21T07:14:57.574Z,18.35
2023-03-21T07:15:57.571Z,18.34
2023-03-21T07:16:57.541Z,18.03
2023-03-21T07:17:57.530Z,17.44
2023-03-21T07:18:57.534Z,17.85
2023-03-21T07:19:57.518Z,18.04
2023-03-21T07:20:57.508Z,17.80
2023-03-21T07:21:57.484Z,17.87
2023-03-21T07:22:57.462Z,17.85
2023-03-21T07:23:57.454Z,17.19
2023-03-21T07:25:04.766Z,16.78
2023-03-21T07:25:57.485Z,15.47
2023-03-21T07:26:57.410Z,14.35
2023-03-21T07:27:57.396Z,13.79
2023-03-21T07:28:57.388Z,13.22
2023-03-21T07:29:57.405Z,13.27
2023-03-21T07:30:57.376Z,13.30
2023-03-21T07:31:57.430Z,13.41
2023-03-21T07:32:57.329Z,14.17
2023-03-21T07:33:57.315Z,14.54
2023-03-21T07:34:57.303Z,14.94
2023-03-21T07:35:57.335Z,14.86
2023-03-21T07:36:57.279Z,14.81
2023-03-21T07:37:57.260Z,14.63
2023-03-21T07:38:57.253Z,15.04
2023-03-21T07:39:57.236Z,15.14
2023-03-21T07:40:57.241Z,15.02
2023-03-21T07:41:57.216Z,14.68
2023-03-21T07:42:57.195Z,14.78
2023-03-21T07:43:57.184Z,15.51
2023-03-21T07:44:57.169Z,15.52
2023-03-21T07:45:57.258Z,15.36
2023-03-21T07:46:57.141Z,15.72
2023-03-21T07:47:57.157Z,16.21
2023-03-21T07:48:57.114Z,15.97
2023-03-21T07:49:57.099Z,15.98
2023-03-21T07:50:57.106Z,15.80
2023-03-21T07:51:57.077Z,15.57
2023-03-21T07:52:57.059Z,15.94
2023-03-21T07:53:57.050Z,16.26
2023-03-21T07:54:57.032Z,16.46
2023-03-21T07:55:57.040Z,16.43
2023-03-21T07:56:57.007Z,15.94
2023-03-21T07:57:56.993Z,16.01
2023-03-21T07:58:56.982Z,16.24
2023-03-21T07:59:56.978Z,16.26
2023-03-21T08:00:56.962Z,16.42
2023-03-21T08:01:57.047Z,16.86
2023-03-21T08:02:58.866Z,16.90
2023-03-21T08:03:56.924Z,16.68
2023-03-21T08:04:56.920Z,17.05
2023-03-21T08:05:56.902Z,17.38
2023-03-21T08:06:56.870Z,17.24
2023-03-21T08:07:56.880Z,16.81
2023-03-21T08:08:56.843Z,15.92
2023-03-21T08:09:56.828Z,15.33
2023-03-21T08:10:56.825Z,14.89
2023-03-21T08:11:56.830Z,14.81
2023-03-21T08:12:56.792Z,14.45
2023-03-21T08:13:56.781Z,14.41
2023-03-21T08:14:58.859Z,14.10
2023-03-21T08:15:56.757Z,13.63
2023-03-21T08:16:56.863Z,13.89
2023-03-21T08:17:56.748Z,14.08
2023-03-21T08:18:56.714Z,14.36
2023-03-21T08:19:56.726Z,14.72
2023-03-21T08:20:56.687Z,14.81
2023-03-21T08:21:56.676Z,14.89
2023-03-21T08:22:56.679Z,14.68
2023-03-21T08:23:56.650Z,15.04
2023-03-21T08:24:56.652Z,14.88
2023-03-21T08:25:56.630Z,14.77
2023-03-21T08:26:56.623Z,14.37
2023-03-21T08:27:56.591Z,14.29
2023-03-21T08:28:56.593Z,14.65
2023-03-21T08:29:56.580Z,14.82
2023-03-21T08:30:56.618Z,14.26
2023-03-21T08:31:56.548Z,13.95
2023-03-21T08:32:58.789Z,13.87
2023-03-21T08:33:56.548Z,14.08
2023-03-21T08:34:56.525Z,14.37
2023-03-21T08:35:56.516Z,14.40
2023-03-21T08:36:56.505Z,14.92
2023-03-21T08:37:56.469Z,15.10
2023-03-21T08:38:56.446Z,15.10
2023-03-21T08:39:56.495Z,15.37
2023-03-21T08:40:58.550Z,15.33
2023-03-21T08:41:56.448Z,15.43
2023-03-21T08:42:56.390Z,15.21
2023-03-21T08:43:56.382Z,14.85
2023-03-21T08:44:56.374Z,15.04
2023-03-21T08:45:56.389Z,15.27
2023-03-21T08:46:56.341Z,15.40
2023-03-21T08:47:56.434Z,15.24
2023-03-21T08:48:56.311Z,15.18
2023-03-21T08:49:59.032Z,14.86
2023-03-21T08:50:56.289Z,15.49
2023-03-21T08:51:56.278Z,15.61
2023-03-21T08:52:56.268Z,15.68
2023-03-21T08:53:56.251Z,15.72
2023-03-21T08:54:56.236Z,15.04
2023-03-21T08:55:56.237Z,14.48
2023-03-21T08:56:56.213Z,14.54
2023-03-21T08:57:56.244Z,14.26
2023-03-21T08:58:56.184Z,14.47
2023-03-21T08:59:56.182Z,14.43
2023-03-21T09:00:56.170Z,14.32
2023-03-21T09:01:56.163Z,14.43
2023-03-21T09:02:56.166Z,14.40
2023-03-21T09:03:56.121Z,14.45
2023-03-21T09:04:56.223Z,14.70
2023-03-21T09:05:56.124Z,15.10
2023-03-21T09:06:56.084Z,15.40
2023-03-21T09:07:56.076Z,15.46
2023-03-21T09:08:56.054Z,15.35
2023-03-21T09:10:15.056Z,15.52
2023-03-21T09:10:56.043Z,15.39
2023-03-21T09:11:56.005Z,15.37
2023-03-21T09:12:56.014Z,15.07
2023-03-21T09:13:55.988Z,14.88
2023-03-21T09:14:55.961Z,15.15
2023-03-21T09:15:55.994Z,14.79
2023-03-21T09:16:55.940Z,15.00
2023-03-21T09:17:55.933Z,15.27
2023-03-21T09:18:55.917Z,15.58
2023-03-21T09:19:55.902Z,15.54
2023-03-21T09:20:55.900Z,15.47
2023-03-21T09:21:55.898Z,15.19
2023-03-21T09:22:55.856Z,15.27
2023-03-21T09:23:55.861Z,15.10
2023-03-21T09:24:55.824Z,15.03
2023-03-21T09:25:55.832Z,15.25
2023-03-21T09:26:55.795Z,15.24
2023-03-21T09:27:55.809Z,15.68
2023-03-21T09:28:55.772Z,15.64
2023-03-21T09:29:55.758Z,15.79
2023-03-21T09:30:55.803Z,15.52
2023-03-21T09:31:55.742Z,15.44
2023-03-21T09:32:56.028Z,15.33
2023-03-21T09:33:55.712Z,15.17
2023-03-21T09:34:55.691Z,15.00
2023-03-21T09:35:55.712Z,14.94
2023-03-21T09:36:55.662Z,15.17
2023-03-21T09:37:55.669Z,15.27
2023-03-21T09:38:55.639Z,15.25
2023-03-21T09:39:55.660Z,15.43
2023-03-21T09:40:55.622Z,15.25
2023-03-21T09:41:55.597Z,15.33
2023-03-21T09:42:55.586Z,15.54
2023-03-21T09:43:55.568Z,15.65
2023-03-21T09:44:55.554Z,15.77
2023-03-21T09:45:55.563Z,15.47
2023-03-21T09:46:55.614Z,15.55
2023-03-21T09:47:55.547Z,15.72
2023-03-21T09:48:57.499Z,15.72
2023-03-21T09:50:01.707Z,15.58
2023-03-21T09:50:55.508Z,15.67
2023-03-21T09:51:55.460Z,15.58
2023-03-21T09:52:55.450Z,15.54
2023-03-21T09:53:57.150Z,15.29
2023-03-21T09:54:55.419Z,15.14
2023-03-21T09:55:55.433Z,15.18
2023-03-21T09:56:55.394Z,15.28
2023-03-21T09:57:55.381Z,15.06
2023-03-21T09:58:55.374Z,15.10
2023-03-21T09:59:55.359Z,15.19
2023-03-21T10:00:55.388Z,15.44
2023-03-21T10:01:55.344Z,15.42
2023-03-21T10:02:57.438Z,15.55
2023-03-21T10:03:55.304Z,15.49
2023-03-21T10:04:55.345Z,15.29
2023-03-21T10:05:55.297Z,15.27
2023-03-21T10:06:55.266Z,15.27
2023-03-21T10:07:55.247Z,15.07
2023-03-21T10:08:57.087Z,14.81
2023-03-21T10:09:55.245Z,14.65
2023-03-21T10:10:55.222Z,14.77
2023-03-21T10:11:55.196Z,14.77
2023-03-21T10:12:55.181Z,14.85
2023-03-21T10:13:55.169Z,14.72
2023-03-21T10:14:57.550Z,14.54
2023-03-21T10:15:55.150Z,14.70
2023-03-21T10:16:55.128Z,14.86
2023-03-21T10:17:55.108Z,15.04
2023-03-21T10:18:55.098Z,15.00
2023-03-21T10:19:55.084Z,15.06
2023-03-21T10:20:55.080Z,15.15
2023-03-21T10:22:03.832Z,15.07
2023-03-21T10:22:56.072Z,14.79
2023-03-21T10:23:55.030Z,14.72
2023-03-21T10:24:55.010Z,14.72
2023-03-21T10:25:55.156Z,14.86
2023-03-21T10:26:54.990Z,14.81
2023-03-21T10:27:54.975Z,14.70
2023-03-21T10:28:54.982Z,14.69
2023-03-21T10:29:54.948Z,14.70
2023-03-21T10:30:54.963Z,14.77
2023-03-21T10:31:55.023Z,14.73
2023-03-21T10:32:54.983Z,14.63
2023-03-21T10:33:54.912Z,14.60
2023-03-21T10:35:54.948Z,14.40
2023-03-21T10:36:54.971Z,14.35
2023-03-21T10:37:54.853Z,14.43
2023-03-21T10:38:54.841Z,14.40
2023-03-21T10:39:54.828Z,14.45
2023-03-21T10:40:54.828Z,14.45
2023-03-21T10:41:54.833Z,14.36
2023-03-21T10:42:54.782Z,14.33
2023-03-21T10:43:54.768Z,14.36
2023-03-21T10:44:54.759Z,14.37
2023-03-21T10:45:55.024Z,14.28
2023-03-21T10:46:55.100Z,14.32
2023-03-21T10:47:54.931Z,14.30
2023-03-21T10:48:54.751Z,14.28
2023-03-21T10:50:10.979Z,14.25
2023-03-21T10:50:55.792Z,14.15
2023-03-21T10:51:54.678Z,14.14
2023-03-21T10:52:54.648Z,14.20
2023-03-21T10:53:54.636Z,14.18
2023-03-21T10:54:54.620Z,14.20
2023-03-21T10:55:54.610Z,14.25
2023-03-21T10:56:54.606Z,14.30
2023-03-21T10:57:54.598Z,14.40
2023-03-21T10:58:54.576Z,14.48
2023-03-21T10:59:54.562Z,14.55
2023-03-21T11:00:54.560Z,14.53
2023-03-21T11:01:54.636Z,14.44
2023-03-21T11:02:54.624Z,14.45
2023-03-21T11:03:54.502Z,14.51
2023-03-21T11:04:54.490Z,14.40
2023-03-21T11:05:54.475Z,14.40
2023-03-21T11:06:54.480Z,14.33
2023-03-21T11:07:54.442Z,14.33
2023-03-21T11:08:54.449Z,14.48
2023-03-21T11:09:54.425Z,14.41
2023-03-21T11:10:54.412Z,14.51
2023-03-21T11:11:54.404Z,14.53
2023-03-21T11:12:54.376Z,14.55
2023-03-21T11:13:54.385Z,14.62
2023-03-21T11:14:54.358Z,14.78
2023-03-21T11:15:54.341Z,14.73
2023-03-21T11:16:54.383Z,14.69
2023-03-21T11:17:54.313Z,14.81
2023-03-21T11:18:54.305Z,14.85
2023-03-21T11:19:54.290Z,15.00
2023-03-21T11:20:54.289Z,15.19
2023-03-21T11:21:54.280Z,15.17
2023-03-21T11:22:54.254Z,15.06
2023-03-21T11:23:54.278Z,14.96
2023-03-21T11:24:54.229Z,14.97
2023-03-21T11:25:54.213Z,14.99
2023-03-21T11:26:54.234Z,14.88
2023-03-21T11:27:54.201Z,14.72
2023-03-21T11:28:54.176Z,14.96
2023-03-21T11:29:54.191Z,14.96
2023-03-21T11:30:54.275Z,15.04
2023-03-21T11:31:54.147Z,15.14
2023-03-21T11:32:54.126Z,15.21
2023-03-21T11:33:54.103Z,15.25
2023-03-21T11:34:54.102Z,15.25
2023-03-21T11:35:54.101Z,15.25
2023-03-21T11:36:54.085Z,15.31
2023-03-21T11:37:54.052Z,15.36
2023-03-21T11:38:54.056Z,15.22
2023-03-21T11:39:54.045Z,15.24
2023-03-21T11:40:54.031Z,15.17
2023-03-21T11:41:54.027Z,15.06
2023-03-21T11:42:54.009Z,14.94
2023-03-21T11:43:53.986Z,14.97
2023-03-21T11:44:53.963Z,14.92
2023-03-21T11:45:53.993Z,14.86
2023-03-21T11:46:54.456Z,14.72
2023-03-21T11:47:53.962Z,14.77
2023-03-21T11:48:53.909Z,14.72
2023-03-21T11:50:01.736Z,14.70
2023-03-21T11:50:54.883Z,14.81
2023-03-21T11:51:53.891Z,14.84
2023-03-21T11:52:53.867Z,14.91
2023-03-21T11:53:53.872Z,14.86
2023-03-21T11:54:53.843Z,14.91
2023-03-21T11:55:53.813Z,14.66
2023-03-21T11:56:53.838Z,14.44
2023-03-21T11:57:54.840Z,14.45
2023-03-21T11:58:53.800Z,14.50
2023-03-21T11:59:53.777Z,14.47
2023-03-21T12:00:53.755Z,14.48
2023-03-21T12:01:53.770Z,14.50
2023-03-21T12:02:53.814Z,14.53
2023-03-21T12:03:55.009Z,14.43
2023-03-21T12:04:53.701Z,14.32
2023-03-21T12:05:53.691Z,14.28
2023-03-21T12:06:53.691Z,14.12
2023-03-21T12:07:53.658Z,13.99
2023-03-21T12:08:53.644Z,13.96
2023-03-21T12:09:53.644Z,13.79
2023-03-21T12:10:53.626Z,13.77
2023-03-21T12:11:53.630Z,13.78
2023-03-21T12:12:53.593Z,13.83
2023-03-21T12:13:53.577Z,13.86
2023-03-21T12:14:53.573Z,13.85
2023-03-21T12:15:55.421Z,13.87
2023-03-21T12:16:55.016Z,13.83
2023-03-21T12:17:53.547Z,13.85
2023-03-21T12:18:53.511Z,13.72
2023-03-21T12:19:53.596Z,13.68
2023-03-21T12:20:53.488Z,13.50
2023-03-21T12:21:54.835Z,13.31
2023-03-21T12:22:53.496Z,13.28
2023-03-21T12:23:53.439Z,13.31
2023-03-21T12:24:53.435Z,13.49
2023-03-21T12:25:53.414Z,13.59
2023-03-21T12:26:53.418Z,13.59
2023-03-21T12:27:53.411Z,13.57
2023-03-21T12:28:53.385Z,13.67
2023-03-21T12:29:53.367Z,13.56
2023-03-21T12:30:53.353Z,13.41
2023-03-21T12:31:53.479Z,13.28
2023-03-21T12:32:53.343Z,13.15
2023-03-21T12:33:53.434Z,13.20
2023-03-21T12:34:53.302Z,13.18
2023-03-21T12:35:53.325Z,13.16
2023-03-21T12:36:53.274Z,13.12
2023-03-21T12:37:54.986Z,13.00
2023-03-21T12:38:53.245Z,13.01
2023-03-21T12:39:53.231Z,13.08
2023-03-21T12:40:53.240Z,13.05
2023-03-21T12:41:53.221Z,13.00
2023-03-21T12:42:53.219Z,12.97
2023-03-21T12:43:55.278Z,12.93
2023-03-21T12:44:53.165Z,12.94
2023-03-21T12:45:53.210Z,12.94
2023-03-21T12:46:53.216Z,12.91
2023-03-21T12:47:53.214Z,12.94
2023-03-21T12:48:53.109Z,12.85
2023-03-21T12:49:55.168Z,12.82
2023-03-21T12:50:53.083Z,12.80
2023-03-21T12:51:53.070Z,12.65
2023-03-21T12:52:53.078Z,12.65
2023-03-21T12:53:53.054Z,12.72
2023-03-21T12:54:53.029Z,12.65
2023-03-21T12:55:53.018Z,12.58
2023-03-21T12:56:53.004Z,12.60
2023-03-21T12:57:57.448Z,12.64
2023-03-21T12:58:52.976Z,12.65
2023-03-21T12:59:52.966Z,12.62
2023-03-21T13:00:53.005Z,12.61
2023-03-21T13:01:52.932Z,12.54
2023-03-21T13:02:52.950Z,12.54